sensor_id;sensor_type;location;lat;lon;timestamp;temperature;humidity
64652;HTU21D;51062;45.120;37.660;2023-02-08T00:01:29;-3.86;80.05
64652;HTU21D;51062;45.120;37.660;2023-02-08T00:03:55;-3.83;80.01
64652;HTU21D;51062;45.120;37.660;2023-02-08T00:06:21;-3.81;79.98
64652;HTU21D;51062;45.120;37.660;2023-02-08T00:08:47;-3.79;79.97
64652;HTU21D;51062;45.120;37.660;2023-02-08T00:11:13;-3.77;79.98
64652;HTU21D;51062;45.120;37.660;2023-02-08T00:13:40;-3.75;79.98
64652;HTU21D;51062;45.120;37.660;2023-02-08T00:16:06;-3.71;79.97
64652;HTU21D;51062;45.120;37.660;2023-02-08T00:18:33;-3.68;79.92
64652;HTU21D;51062;45.120;37.660;2023-02-08T00:20:59;-3.67;79.91
64652;HTU21D;51062;45.120;37.660;2023-02-08T00:23:25;-3.65;79.94
64652;HTU21D;51062;45.120;37.660;2023-02-08T00:25:51;-3.63;79.91
64652;HTU21D;51062;45.120;37.660;2023-02-08T00:28:18;-3.62;79.91
64652;HTU21D;51062;45.120;37.660;2023-02-08T00:30:44;-3.61;79.90
64652;HTU21D;51062;45.120;37.660;2023-02-08T00:33:11;-3.58;79.89
64652;HTU21D;51062;45.120;37.660;2023-02-08T00:35:37;-3.57;79.85
64652;HTU21D;51062;45.120;37.660;2023-02-08T00:38:03;-3.57;79.88
64652;HTU21D;51062;45.120;37.660;2023-02-08T00:40:29;-3.55;79.88
64652;HTU21D;51062;45.120;37.660;2023-02-08T00:42:56;-3.54;79.88
64652;HTU21D;51062;45.120;37.660;2023-02-08T00:45:22;-3.53;79.89
64652;HTU21D;51062;45.120;37.660;2023-02-08T00:47:48;-3.51;79.92
64652;HTU21D;51062;45.120;37.660;2023-02-08T00:50:14;-3.51;79.88
64652;HTU21D;51062;45.120;37.660;2023-02-08T00:52:40;-3.50;79.89
64652;HTU21D;51062;45.120;37.660;2023-02-08T00:55:07;-3.49;79.88
64652;HTU21D;51062;45.120;37.660;2023-02-08T00:57:33;-3.49;79.85
64652;HTU21D;51062;45.120;37.660;2023-02-08T01:00:00;-3.48;79.86
64652;HTU21D;51062;45.120;37.660;2023-02-08T01:02:26;-3.49;79.84
64652;HTU21D;51062;45.120;37.660;2023-02-08T01:04:52;-3.47;79.83
64652;HTU21D;51062;45.120;37.660;2023-02-08T01:07:18;-3.46;79.82
64652;HTU21D;51062;45.120;37.660;2023-02-08T01:09:44;-3.45;79.79
64652;HTU21D;51062;45.120;37.660;2023-02-08T01:12:10;-3.46;79.73
64652;HTU21D;51062;45.120;37.660;2023-02-08T01:14:39;-3.46;79.71
64652;HTU21D;51062;45.120;37.660;2023-02-08T01:17:06;-3.48;79.72
64652;HTU21D;51062;45.120;37.660;2023-02-08T01:19:33;-3.49;79.72
64652;HTU21D;51062;45.120;37.660;2023-02-08T01:22:02;-3.50;79.72
64652;HTU21D;51062;45.120;37.660;2023-02-08T01:24:28;-3.51;79.75
64652;HTU21D;51062;45.120;37.660;2023-02-08T01:26:55;-3.51;79.75
64652;HTU21D;51062;45.120;37.660;2023-02-08T01:29:22;-3.52;79.72
64652;HTU21D;51062;45.120;37.660;2023-02-08T01:31:47;-3.52;79.69
64652;HTU21D;51062;45.120;37.660;2023-02-08T01:34:13;-3.53;79.66
64652;HTU21D;51062;45.120;37.660;2023-02-08T01:36:42;-3.55;79.64
64652;HTU21D;51062;45.120;37.660;2023-02-08T01:39:09;-3.60;79.61
64652;HTU21D;51062;45.120;37.660;2023-02-08T01:41:38;-3.64;79.65
64652;HTU21D;51062;45.120;37.660;2023-02-08T01:46:41;-3.69;79.66
64652;HTU21D;51062;45.120;37.660;2023-02-08T01:49:23;-3.71;79.64
64652;HTU21D;51062;45.120;37.660;2023-02-08T01:54:24;-3.79;79.60
64652;HTU21D;51062;45.120;37.660;2023-02-08T01:56:51;-3.84;79.62
64652;HTU21D;51062;45.120;37.660;2023-02-08T01:59:24;-3.89;79.64
64652;HTU21D;51062;45.120;37.660;2023-02-08T02:01:53;-3.92;79.67
64652;HTU21D;51062;45.120;37.660;2023-02-08T02:04:20;-3.95;79.68
64652;HTU21D;51062;45.120;37.660;2023-02-08T02:06:49;-3.97;79.71
64652;HTU21D;51062;45.120;37.660;2023-02-08T02:09:32;-3.97;79.71
64652;HTU21D;51062;45.120;37.660;2023-02-08T02:12:01;-3.98;79.66
64652;HTU21D;51062;45.120;37.660;2023-02-08T02:14:28;-3.99;79.65
64652;HTU21D;51062;45.120;37.660;2023-02-08T02:16:54;-4.00;79.62
64652;HTU21D;51062;45.120;37.660;2023-02-08T02:19:26;-4.02;79.61
64652;HTU21D;51062;45.120;37.660;2023-02-08T02:36:15;-4.06;79.49
64652;HTU21D;51062;45.120;37.660;2023-02-08T02:39:22;-4.07;79.53
64652;HTU21D;51062;45.120;37.660;2023-02-08T02:50:29;-4.06;79.35
64652;HTU21D;51062;45.120;37.660;2023-02-08T02:53:07;-4.07;79.37
64652;HTU21D;51062;45.120;37.660;2023-02-08T02:55:41;-4.09;79.31
64652;HTU21D;51062;45.120;37.660;2023-02-08T02:58:09;-4.11;79.33
64652;HTU21D;51062;45.120;37.660;2023-02-08T03:00:36;-4.12;79.33
64652;HTU21D;51062;45.120;37.660;2023-02-08T03:03:02;-4.13;79.32
64652;HTU21D;51062;45.120;37.660;2023-02-08T03:05:29;-4.14;79.30
64652;HTU21D;51062;45.120;37.660;2023-02-08T03:18:40;-4.16;79.18
64652;HTU21D;51062;45.120;37.660;2023-02-08T03:21:19;-4.17;79.17
64652;HTU21D;51062;45.120;37.660;2023-02-08T03:24:01;-4.20;79.14
64652;HTU21D;51062;45.120;37.660;2023-02-08T03:26:53;-4.22;79.12
64652;HTU21D;51062;45.120;37.660;2023-02-08T03:32:24;-4.26;79.02
64652;HTU21D;51062;45.120;37.660;2023-02-08T03:37:37;-4.32;78.95
64652;HTU21D;51062;45.120;37.660;2023-02-08T03:40:10;-4.36;78.92
64652;HTU21D;51062;45.120;37.660;2023-02-08T03:42:39;-4.37;78.92
64652;HTU21D;51062;45.120;37.660;2023-02-08T03:45:15;-4.40;78.95
64652;HTU21D;51062;45.120;37.660;2023-02-08T03:47:44;-4.41;78.94
64652;HTU21D;51062;45.120;37.660;2023-02-08T03:50:15;-4.39;78.93
64652;HTU21D;51062;45.120;37.660;2023-02-08T03:52:45;-4.38;78.95
64652;HTU21D;51062;45.120;37.660;2023-02-08T03:55:16;-4.38;78.86
64652;HTU21D;51062;45.120;37.660;2023-02-08T03:57:47;-4.39;78.85
64652;HTU21D;51062;45.120;37.660;2023-02-08T04:00:16;-4.40;78.88
64652;HTU21D;51062;45.120;37.660;2023-02-08T04:02:50;-4.39;78.86
64652;HTU21D;51062;45.120;37.660;2023-02-08T04:05:19;-4.38;78.85
64652;HTU21D;51062;45.120;37.660;2023-02-08T04:07:46;-4.40;78.85
64652;HTU21D;51062;45.120;37.660;2023-02-08T04:10:13;-4.39;78.86
64652;HTU21D;51062;45.120;37.660;2023-02-08T04:12:39;-4.36;78.83
64652;HTU21D;51062;45.120;37.660;2023-02-08T04:15:05;-4.35;78.78
64652;HTU21D;51062;45.120;37.660;2023-02-08T04:17:31;-4.35;78.74
64652;HTU21D;51062;45.120;37.660;2023-02-08T04:19:57;-4.38;78.69
64652;HTU21D;51062;45.120;37.660;2023-02-08T04:22:25;-4.41;78.70
64652;HTU21D;51062;45.120;37.660;2023-02-08T04:24:51;-4.44;78.63
64652;HTU21D;51062;45.120;37.660;2023-02-08T04:27:17;-4.50;78.66
64652;HTU21D;51062;45.120;37.660;2023-02-08T04:29:43;-4.51;78.72
64652;HTU21D;51062;45.120;37.660;2023-02-08T04:32:09;-4.51;78.69
64652;HTU21D;51062;45.120;37.660;2023-02-08T04:34:37;-4.53;78.70
64652;HTU21D;51062;45.120;37.660;2023-02-08T04:37:04;-4.51;78.68
64652;HTU21D;51062;45.120;37.660;2023-02-08T04:39:30;-4.53;78.61
64652;HTU21D;51062;45.120;37.660;2023-02-08T04:41:56;-4.56;78.61
64652;HTU21D;51062;45.120;37.660;2023-02-08T04:44:23;-4.57;78.61
64652;HTU21D;51062;45.120;37.660;2023-02-08T04:46:50;-4.58;78.61
64652;HTU21D;51062;45.120;37.660;2023-02-08T04:49:16;-4.60;78.57
64652;HTU21D;51062;45.120;37.660;2023-02-08T04:51:42;-4.63;78.60
64652;HTU21D;51062;45.120;37.660;2023-02-08T04:54:08;-4.65;78.65
64652;HTU21D;51062;45.120;37.660;2023-02-08T04:56:35;-4.68;78.71
64652;HTU21D;51062;45.120;37.660;2023-02-08T04:59:01;-4.70;78.74
64652;HTU21D;51062;45.120;37.660;2023-02-08T05:01:28;-4.71;78.73
64652;HTU21D;51062;45.120;37.660;2023-02-08T05:03:54;-4.75;78.68
64652;HTU21D;51062;45.120;37.660;2023-02-08T05:06:20;-4.78;78.67
64652;HTU21D;51062;45.120;37.660;2023-02-08T05:08:46;-4.82;78.66
64652;HTU21D;51062;45.120;37.660;2023-02-08T05:11:12;-4.85;78.69
64652;HTU21D;51062;45.120;37.660;2023-02-08T05:13:43;-4.90;78.71
64652;HTU21D;51062;45.120;37.660;2023-02-08T05:16:09;-4.91;78.74
64652;HTU21D;51062;45.120;37.660;2023-02-08T05:18:35;-4.94;78.78
64652;HTU21D;51062;45.120;37.660;2023-02-08T05:21:01;-4.94;78.82
64652;HTU21D;51062;45.120;37.660;2023-02-08T05:23:28;-4.91;78.81
64652;HTU21D;51062;45.120;37.660;2023-02-08T05:25:55;-4.89;78.77
64652;HTU21D;51062;45.120;37.660;2023-02-08T05:28:21;-4.89;78.75
64652;HTU21D;51062;45.120;37.660;2023-02-08T05:30:47;-4.87;78.75
64652;HTU21D;51062;45.120;37.660;2023-02-08T05:33:13;-4.88;78.69
64652;HTU21D;51062;45.120;37.660;2023-02-08T05:35:39;-4.91;78.69
64652;HTU21D;51062;45.120;37.660;2023-02-08T05:38:06;-4.91;78.74
64652;HTU21D;51062;45.120;37.660;2023-02-08T05:40:32;-4.91;78.73
64652;HTU21D;51062;45.120;37.660;2023-02-08T05:42:58;-4.94;78.70
64652;HTU21D;51062;45.120;37.660;2023-02-08T05:45:24;-4.95;78.73
64652;HTU21D;51062;45.120;37.660;2023-02-08T05:47:50;-4.97;78.74
64652;HTU21D;51062;45.120;37.660;2023-02-08T05:50:17;-4.97;78.80
64652;HTU21D;51062;45.120;37.660;2023-02-08T05:52:43;-4.96;78.81
64652;HTU21D;51062;45.120;37.660;2023-02-08T05:55:09;-4.95;78.79
64652;HTU21D;51062;45.120;37.660;2023-02-08T05:57:35;-4.93;78.77
64652;HTU21D;51062;45.120;37.660;2023-02-08T06:00:04;-4.91;78.78
64652;HTU21D;51062;45.120;37.660;2023-02-08T06:02:31;-4.91;78.77
64652;HTU21D;51062;45.120;37.660;2023-02-08T06:04:58;-4.89;78.73
64652;HTU21D;51062;45.120;37.660;2023-02-08T06:07:25;-4.91;78.68
64652;HTU21D;51062;45.120;37.660;2023-02-08T06:09:50;-4.91;78.68
64652;HTU21D;51062;45.120;37.660;2023-02-08T06:12:17;-4.94;78.71
64652;HTU21D;51062;45.120;37.660;2023-02-08T06:15:03;-4.95;78.79
64652;HTU21D;51062;45.120;37.660;2023-02-08T06:17:30;-4.95;78.85
64652;HTU21D;51062;45.120;37.660;2023-02-08T06:19:56;-4.94;78.88
64652;HTU21D;51062;45.120;37.660;2023-02-08T06:22:22;-4.89;78.81
64652;HTU21D;51062;45.120;37.660;2023-02-08T06:24:48;-4.87;78.79
64652;HTU21D;51062;45.120;37.660;2023-02-08T06:27:14;-4.84;78.82
64652;HTU21D;51062;45.120;37.660;2023-02-08T06:29:40;-4.80;78.79
64652;HTU21D;51062;45.120;37.660;2023-02-08T06:32:06;-4.73;78.72
64652;HTU21D;51062;45.120;37.660;2023-02-08T06:34:32;-4.71;78.59
64652;HTU21D;51062;45.120;37.660;2023-02-08T06:36:58;-4.72;78.56
64652;HTU21D;51062;45.120;37.660;2023-02-08T06:39:27;-4.72;78.54
64652;HTU21D;51062;45.120;37.660;2023-02-08T06:41:54;-4.72;78.65
64652;HTU21D;51062;45.120;37.660;2023-02-08T06:44:20;-4.69;78.62
64652;HTU21D;51062;45.120;37.660;2023-02-08T06:46:46;-4.66;78.63
64652;HTU21D;51062;45.120;37.660;2023-02-08T06:49:12;-4.64;78.72
64652;HTU21D;51062;45.120;37.660;2023-02-08T06:51:38;-4.57;78.72
64652;HTU21D;51062;45.120;37.660;2023-02-08T06:54:04;-4.52;78.69
64652;HTU21D;51062;45.120;37.660;2023-02-08T06:56:31;-4.48;78.67
64652;HTU21D;51062;45.120;37.660;2023-02-08T06:58:57;-4.40;78.65
64652;HTU21D;51062;45.120;37.660;2023-02-08T07:01:23;-4.31;78.47
64652;HTU21D;51062;45.120;37.660;2023-02-08T07:03:49;-4.27;78.38
64652;HTU21D;51062;45.120;37.660;2023-02-08T07:06:17;-4.26;78.36
64652;HTU21D;51062;45.120;37.660;2023-02-08T07:08:44;-4.24;78.42
64652;HTU21D;51062;45.120;37.660;2023-02-08T07:11:12;-4.22;78.42
64652;HTU21D;51062;45.120;37.660;2023-02-08T07:13:39;-4.16;78.51
64652;HTU21D;51062;45.120;37.660;2023-02-08T07:16:06;-4.06;78.53
64652;HTU21D;51062;45.120;37.660;2023-02-08T07:18:33;-3.96;78.43
64652;HTU21D;51062;45.120;37.660;2023-02-08T07:20:59;-3.89;78.31
64652;HTU21D;51062;45.120;37.660;2023-02-08T07:23:26;-3.82;78.33
64652;HTU21D;51062;45.120;37.660;2023-02-08T07:25:59;-3.75;78.31
64652;HTU21D;51062;45.120;37.660;2023-02-08T07:28:26;-3.65;78.18
64652;HTU21D;51062;45.120;37.660;2023-02-08T07:30:53;-3.60;78.14
64652;HTU21D;51062;45.120;37.660;2023-02-08T07:33:19;-3.48;78.12
64652;HTU21D;51062;45.120;37.660;2023-02-08T07:35:46;-3.38;77.96
64652;HTU21D;51062;45.120;37.660;2023-02-08T07:38:12;-3.35;77.95
64652;HTU21D;51062;45.120;37.660;2023-02-08T07:40:39;-3.32;77.89
64652;HTU21D;51062;45.120;37.660;2023-02-08T07:43:05;-3.37;77.70
64652;HTU21D;51062;45.120;37.660;2023-02-08T07:45:41;-3.41;77.82
64652;HTU21D;51062;45.120;37.660;2023-02-08T07:48:07;-3.41;77.98
64652;HTU21D;51062;45.120;37.660;2023-02-08T07:50:33;-3.35;78.22
64652;HTU21D;51062;45.120;37.660;2023-02-08T07:52:59;-3.30;78.06
64652;HTU21D;51062;45.120;37.660;2023-02-08T07:55:25;-3.28;78.11
64652;HTU21D;51062;45.120;37.660;2023-02-08T07:57:54;-3.27;78.14
64652;HTU21D;51062;45.120;37.660;2023-02-08T08:00:21;-3.21;78.21
64652;HTU21D;51062;45.120;37.660;2023-02-08T08:02:47;-3.20;77.95
64652;HTU21D;51062;45.120;37.660;2023-02-08T08:05:15;-3.24;77.89
64652;HTU21D;51062;45.120;37.660;2023-02-08T08:07:41;-3.31;77.70
64652;HTU21D;51062;45.120;37.660;2023-02-08T08:10:08;-3.41;77.79
64652;HTU21D;51062;45.120;37.660;2023-02-08T08:12:34;-3.48;78.01
64652;HTU21D;51062;45.120;37.660;2023-02-08T08:15:00;-3.50;78.11
64652;HTU21D;51062;45.120;37.660;2023-02-08T08:17:26;-3.48;78.14
64652;HTU21D;51062;45.120;37.660;2023-02-08T08:19:52;-3.46;78.23
64652;HTU21D;51062;45.120;37.660;2023-02-08T08:22:18;-3.41;78.06
64652;HTU21D;51062;45.120;37.660;2023-02-08T08:24:44;-3.39;78.05
64652;HTU21D;51062;45.120;37.660;2023-02-08T08:27:10;-3.37;78.04
64652;HTU21D;51062;45.120;37.660;2023-02-08T08:29:36;-3.36;77.88
64652;HTU21D;51062;45.120;37.660;2023-02-08T08:32:03;-3.39;77.93
64652;HTU21D;51062;45.120;37.660;2023-02-08T08:34:30;-3.41;77.90
64652;HTU21D;51062;45.120;37.660;2023-02-08T08:36:57;-3.40;78.10
64652;HTU21D;51062;45.120;37.660;2023-02-08T08:39:24;-3.35;78.23
64652;HTU21D;51062;45.120;37.660;2023-02-08T08:42:01;-3.28;78.12
64652;HTU21D;51062;45.120;37.660;2023-02-08T08:44:29;-3.21;78.04
64652;HTU21D;51062;45.120;37.660;2023-02-08T08:46:56;-3.21;78.01
64652;HTU21D;51062;45.120;37.660;2023-02-08T08:49:23;-3.20;77.99
64652;HTU21D;51062;45.120;37.660;2023-02-08T08:51:49;-3.13;77.97
64652;HTU21D;51062;45.120;37.660;2023-02-08T08:54:16;-3.09;77.98
64652;HTU21D;51062;45.120;37.660;2023-02-08T08:56:42;-3.03;77.90
64652;HTU21D;51062;45.120;37.660;2023-02-08T08:59:09;-2.96;77.97
64652;HTU21D;51062;45.120;37.660;2023-02-08T09:01:35;-2.86;77.75
64652;HTU21D;51062;45.120;37.660;2023-02-08T09:04:01;-2.81;77.46
64652;HTU21D;51062;45.120;37.660;2023-02-08T09:06:27;-2.82;77.45
64652;HTU21D;51062;45.120;37.660;2023-02-08T09:08:53;-2.81;77.59
64652;HTU21D;51062;45.120;37.660;2023-02-08T09:11:19;-2.74;77.50
64652;HTU21D;51062;45.120;37.660;2023-02-08T09:13:45;-2.76;77.31
64652;HTU21D;51062;45.120;37.660;2023-02-08T09:16:16;-2.82;77.15
64652;HTU21D;51062;45.120;37.660;2023-02-08T09:18:43;-2.88;77.25
64652;HTU21D;51062;45.120;37.660;2023-02-08T09:21:15;-2.84;77.34
64652;HTU21D;51062;45.120;37.660;2023-02-08T09:23:41;-2.81;77.50
64652;HTU21D;51062;45.120;37.660;2023-02-08T09:26:12;-2.73;77.34
64652;HTU21D;51062;45.120;37.660;2023-02-08T09:28:38;-2.73;77.12
64652;HTU21D;51062;45.120;37.660;2023-02-08T09:31:10;-2.73;77.11
64652;HTU21D;51062;45.120;37.660;2023-02-08T09:33:36;-2.73;77.08
64652;HTU21D;51062;45.120;37.660;2023-02-08T09:36:02;-2.73;76.99
64652;HTU21D;51062;45.120;37.660;2023-02-08T09:38:29;-2.72;77.02
64652;HTU21D;51062;45.120;37.660;2023-02-08T09:46:26;-2.36;76.90
64652;HTU21D;51062;45.120;37.660;2023-02-08T09:48:56;-2.31;76.58
64652;HTU21D;51062;45.120;37.660;2023-02-08T09:51:35;-2.33;76.30
64652;HTU21D;51062;45.120;37.660;2023-02-08T09:54:17;-2.43;76.23
64652;HTU21D;51062;45.120;37.660;2023-02-08T09:56:46;-2.53;76.34
64652;HTU21D;51062;45.120;37.660;2023-02-08T09:59:16;-2.56;76.53
64652;HTU21D;51062;45.120;37.660;2023-02-08T10:01:44;-2.59;76.51
64652;HTU21D;51062;45.120;37.660;2023-02-08T10:04:24;-2.59;76.50
64652;HTU21D;51062;45.120;37.660;2023-02-08T10:06:52;-2.57;76.47
64652;HTU21D;51062;45.120;37.660;2023-02-08T10:09:21;-2.54;76.38
64652;HTU21D;51062;45.120;37.660;2023-02-08T10:12:00;-2.51;76.21
64652;HTU21D;51062;45.120;37.660;2023-02-08T10:28:02;-2.38;75.73
64652;HTU21D;51062;45.120;37.660;2023-02-08T10:30:49;-2.41;75.72
64652;HTU21D;51062;45.120;37.660;2023-02-08T10:36:15;-2.54;75.80
64652;HTU21D;51062;45.120;37.660;2023-02-08T10:38:42;-2.57;75.80
64652;HTU21D;51062;45.120;37.660;2023-02-08T10:41:10;-2.61;75.74
64652;HTU21D;51062;45.120;37.660;2023-02-08T10:43:47;-2.59;75.87
64652;HTU21D;51062;45.120;37.660;2023-02-08T10:46:31;-2.51;75.89
64652;HTU21D;51062;45.120;37.660;2023-02-08T10:51:29;-2.45;75.70
64652;HTU21D;51062;45.120;37.660;2023-02-08T10:53:56;-2.47;75.69
64652;HTU21D;51062;45.120;37.660;2023-02-08T10:56:40;-2.54;75.49
64652;HTU21D;51062;45.120;37.660;2023-02-08T10:59:15;-2.60;75.60
64652;HTU21D;51062;45.120;37.660;2023-02-08T11:01:43;-2.64;75.61
64652;HTU21D;51062;45.120;37.660;2023-02-08T11:04:11;-2.66;75.66
64652;HTU21D;51062;45.120;37.660;2023-02-08T11:06:40;-2.71;75.80
64652;HTU21D;51062;45.120;37.660;2023-02-08T11:09:25;-2.69;75.82
64652;HTU21D;51062;45.120;37.660;2023-02-08T11:11:52;-2.71;75.71
64652;HTU21D;51062;45.120;37.660;2023-02-08T11:14:23;-2.75;75.67
64652;HTU21D;51062;45.120;37.660;2023-02-08T11:16:52;-2.81;75.65
64652;HTU21D;51062;45.120;37.660;2023-02-08T11:19:35;-2.88;75.61
64652;HTU21D;51062;45.120;37.660;2023-02-08T11:22:15;-2.92;75.78
64652;HTU21D;51062;45.120;37.660;2023-02-08T11:24:43;-2.93;75.67
64652;HTU21D;51062;45.120;37.660;2023-02-08T11:32:34;-2.97;75.57
64652;HTU21D;51062;45.120;37.660;2023-02-08T11:37:49;-2.89;75.41
64652;HTU21D;51062;45.120;37.660;2023-02-08T11:40:41;-2.83;75.31
64652;HTU21D;51062;45.120;37.660;2023-02-08T11:43:04;-2.78;75.15
64652;HTU21D;51062;45.120;37.660;2023-02-08T11:45:33;-2.76;75.05
64652;HTU21D;51062;45.120;37.660;2023-02-08T11:48:00;-2.77;74.95
64652;HTU21D;51062;45.120;37.660;2023-02-08T11:50:32;-2.76;75.11
64652;HTU21D;51062;45.120;37.660;2023-02-08T11:53:17;-2.74;74.99
64652;HTU21D;51062;45.120;37.660;2023-02-08T11:56:09;-2.69;75.05
64652;HTU21D;51062;45.120;37.660;2023-02-08T11:58:39;-2.67;74.96
64652;HTU21D;51062;45.120;37.660;2023-02-08T12:01:17;-2.69;74.95
64652;HTU21D;51062;45.120;37.660;2023-02-08T12:03:44;-2.74;74.99
64652;HTU21D;51062;45.120;37.660;2023-02-08T12:09:12;-2.80;75.24
64652;HTU21D;51062;45.120;37.660;2023-02-08T12:20:44;-2.63;75.25
64652;HTU21D;51062;45.120;37.660;2023-02-08T12:23:36;-2.63;75.21
64652;HTU21D;51062;45.120;37.660;2023-02-08T12:40:20;-2.88;74.89
64652;HTU21D;51062;45.120;37.660;2023-02-08T12:52:37;-3.05;75.04
64652;HTU21D;51062;45.120;37.660;2023-02-08T12:55:25;-3.07;74.91
64652;HTU21D;51062;45.120;37.660;2023-02-08T12:57:58;-3.07;74.99
64652;HTU21D;51062;45.120;37.660;2023-02-08T13:00:27;-3.10;74.76
64652;HTU21D;51062;45.120;37.660;2023-02-08T13:05:30;-3.18;74.92
64652;HTU21D;51062;45.120;37.660;2023-02-08T13:08:06;-3.20;74.58
64652;HTU21D;51062;45.120;37.660;2023-02-08T13:10:39;-3.22;74.70
64652;HTU21D;51062;45.120;37.660;2023-02-08T13:13:18;-3.22;74.76
64652;HTU21D;51062;45.120;37.660;2023-02-08T13:15:59;-3.21;74.84
64652;HTU21D;51062;45.120;37.660;2023-02-08T13:18:34;-3.22;74.78
64652;HTU21D;51062;45.120;37.660;2023-02-08T13:21:15;-3.27;74.87
64652;HTU21D;51062;45.120;37.660;2023-02-08T13:23:46;-3.30;74.92
64652;HTU21D;51062;45.120;37.660;2023-02-08T13:26:16;-3.35;74.90
64652;HTU21D;51062;45.120;37.660;2023-02-08T13:28:50;-3.41;75.04
64652;HTU21D;51062;45.120;37.660;2023-02-08T13:31:22;-3.45;75.10
64652;HTU21D;51062;45.120;37.660;2023-02-08T13:37:02;-3.47;75.18
64652;HTU21D;51062;45.120;37.660;2023-02-08T13:39:42;-3.49;75.14
64652;HTU21D;51062;45.120;37.660;2023-02-08T13:42:41;-3.53;75.21
64652;HTU21D;51062;45.120;37.660;2023-02-08T13:45:34;-3.56;75.24
64652;HTU21D;51062;45.120;37.660;2023-02-08T13:48:06;-3.62;75.30
64652;HTU21D;51062;45.120;37.660;2023-02-08T13:50:46;-3.64;75.24
64652;HTU21D;51062;45.120;37.660;2023-02-08T13:53:14;-3.68;75.20
64652;HTU21D;51062;45.120;37.660;2023-02-08T13:55:50;-3.69;75.28
64652;HTU21D;51062;45.120;37.660;2023-02-08T14:01:22;-3.77;75.27
64652;HTU21D;51062;45.120;37.660;2023-02-08T14:17:45;-3.98;75.13
64652;HTU21D;51062;45.120;37.660;2023-02-08T14:20:40;-3.99;75.15
64652;HTU21D;51062;45.120;37.660;2023-02-08T14:23:26;-3.99;75.12
64652;HTU21D;51062;45.120;37.660;2023-02-08T14:25:56;-4.04;75.14
64652;HTU21D;51062;45.120;37.660;2023-02-08T14:30:51;-4.06;75.15
64652;HTU21D;51062;45.120;37.660;2023-02-08T14:33:24;-4.09;75.12
64652;HTU21D;51062;45.120;37.660;2023-02-08T14:35:57;-4.12;75.13
64652;HTU21D;51062;45.120;37.660;2023-02-08T14:40:52;-4.15;75.10
64652;HTU21D;51062;45.120;37.660;2023-02-08T14:45:53;-4.14;75.13
64652;HTU21D;51062;45.120;37.660;2023-02-08T14:48:44;-4.15;75.12
64652;HTU21D;51062;45.120;37.660;2023-02-08T14:51:17;-4.17;75.09
64652;HTU21D;51062;45.120;37.660;2023-02-08T14:53:52;-4.17;75.04
64652;HTU21D;51062;45.120;37.660;2023-02-08T14:56:44;-4.19;75.03
64652;HTU21D;51062;45.120;37.660;2023-02-08T14:59:18;-4.20;75.12
64652;HTU21D;51062;45.120;37.660;2023-02-08T15:04:14;-4.19;75.25
64652;HTU21D;51062;45.120;37.660;2023-02-08T15:07:19;-4.19;75.25
64652;HTU21D;51062;45.120;37.660;2023-02-08T15:09:47;-4.19;75.31
64652;HTU21D;51062;45.120;37.660;2023-02-08T15:14:40;-4.20;75.38
64652;HTU21D;51062;45.120;37.660;2023-02-08T15:19:53;-4.16;75.38
64652;HTU21D;51062;45.120;37.660;2023-02-08T15:24:55;-4.16;75.28
64652;HTU21D;51062;45.120;37.660;2023-02-08T15:27:28;-4.17;75.34
64652;HTU21D;51062;45.120;37.660;2023-02-08T15:29:54;-4.15;75.37
64652;HTU21D;51062;45.120;37.660;2023-02-08T15:32:23;-4.15;75.37
64652;HTU21D;51062;45.120;37.660;2023-02-08T15:35:01;-4.14;75.31
64652;HTU21D;51062;45.120;37.660;2023-02-08T15:37:33;-4.17;75.32
64652;HTU21D;51062;45.120;37.660;2023-02-08T15:40:01;-4.19;75.28
64652;HTU21D;51062;45.120;37.660;2023-02-08T15:42:32;-4.19;75.31
64652;HTU21D;51062;45.120;37.660;2023-02-08T15:44:58;-4.20;75.28
64652;HTU21D;51062;45.120;37.660;2023-02-08T15:47:30;-4.21;75.33
64652;HTU21D;51062;45.120;37.660;2023-02-08T15:49:57;-4.20;75.39
64652;HTU21D;51062;45.120;37.660;2023-02-08T15:52:31;-4.20;75.41
64652;HTU21D;51062;45.120;37.660;2023-02-08T15:54:58;-4.19;75.38
64652;HTU21D;51062;45.120;37.660;2023-02-08T15:59:53;-4.15;75.44
64652;HTU21D;51062;45.120;37.660;2023-02-08T16:04:53;-4.11;75.42
64652;HTU21D;51062;45.120;37.660;2023-02-08T16:07:36;-4.09;75.44
64652;HTU21D;51062;45.120;37.660;2023-02-08T16:10:05;-4.07;75.46
64652;HTU21D;51062;45.120;37.660;2023-02-08T16:12:32;-4.05;75.47
64652;HTU21D;51062;45.120;37.660;2023-02-08T16:14:59;-4.01;75.48
64652;HTU21D;51062;45.120;37.660;2023-02-08T16:17:45;-3.97;75.52
64652;HTU21D;51062;45.120;37.660;2023-02-08T16:20:26;-3.95;75.50
64652;HTU21D;51062;45.120;37.660;2023-02-08T16:22:57;-3.94;75.55
64652;HTU21D;51062;45.120;37.660;2023-02-08T16:28:03;-3.89;75.59
64652;HTU21D;51062;45.120;37.660;2023-02-08T16:30:30;-3.87;75.62
64652;HTU21D;51062;45.120;37.660;2023-02-08T16:33:03;-3.84;75.60
64652;HTU21D;51062;45.120;37.660;2023-02-08T16:35:30;-3.83;75.54
64652;HTU21D;51062;45.120;37.660;2023-02-08T16:38:00;-3.81;75.54
64652;HTU21D;51062;45.120;37.660;2023-02-08T16:40:50;-3.82;75.56
64652;HTU21D;51062;45.120;37.660;2023-02-08T16:43:27;-3.81;75.54
64652;HTU21D;51062;45.120;37.660;2023-02-08T16:48:43;-3.81;75.52
64652;HTU21D;51062;45.120;37.660;2023-02-08T16:51:15;-3.82;75.57
64652;HTU21D;51062;45.120;37.660;2023-02-08T16:53:42;-3.80;75.59
64652;HTU21D;51062;45.120;37.660;2023-02-08T16:56:11;-3.78;75.62
64652;HTU21D;51062;45.120;37.660;2023-02-08T16:58:38;-3.77;75.61
64652;HTU21D;51062;45.120;37.660;2023-02-08T17:01:04;-3.77;75.60
64652;HTU21D;51062;45.120;37.660;2023-02-08T17:03:30;-3.76;75.64
64652;HTU21D;51062;45.120;37.660;2023-02-08T17:05:59;-3.76;75.64
64652;HTU21D;51062;45.120;37.660;2023-02-08T17:08:25;-3.76;75.66
64652;HTU21D;51062;45.120;37.660;2023-02-08T17:10:52;-3.79;75.73
64652;HTU21D;51062;45.120;37.660;2023-02-08T17:13:23;-3.81;75.83
64652;HTU21D;51062;45.120;37.660;2023-02-08T17:15:52;-3.83;75.94
64652;HTU21D;51062;45.120;37.660;2023-02-08T17:18:20;-3.86;76.10
64652;HTU21D;51062;45.120;37.660;2023-02-08T17:20:47;-3.89;76.23
64652;HTU21D;51062;45.120;37.660;2023-02-08T17:23:13;-3.92;76.37
64652;HTU21D;51062;45.120;37.660;2023-02-08T17:25:42;-3.95;76.55
64652;HTU21D;51062;45.120;37.660;2023-02-08T17:28:15;-3.98;76.73
64652;HTU21D;51062;45.120;37.660;2023-02-08T17:30:43;-3.99;76.86
64652;HTU21D;51062;45.120;37.660;2023-02-08T17:33:12;-4.02;76.99
64652;HTU21D;51062;45.120;37.660;2023-02-08T17:35:50;-4.07;77.15
64652;HTU21D;51062;45.120;37.660;2023-02-08T17:38:17;-4.11;77.30
64652;HTU21D;51062;45.120;37.660;2023-02-08T17:40:43;-4.14;77.42
64652;HTU21D;51062;45.120;37.660;2023-02-08T17:43:11;-4.14;77.53
64652;HTU21D;51062;45.120;37.660;2023-02-08T17:45:39;-4.19;77.67
64652;HTU21D;51062;45.120;37.660;2023-02-08T17:48:06;-4.20;77.76
64652;HTU21D;51062;45.120;37.660;2023-02-08T17:50:32;-4.21;77.78
64652;HTU21D;51062;45.120;37.660;2023-02-08T17:52:58;-4.24;77.82
64652;HTU21D;51062;45.120;37.660;2023-02-08T17:55:25;-4.25;77.88
64652;HTU21D;51062;45.120;37.660;2023-02-08T17:57:51;-4.27;77.93
64652;HTU21D;51062;45.120;37.660;2023-02-08T18:00:20;-4.26;77.95
64652;HTU21D;51062;45.120;37.660;2023-02-08T18:02:52;-4.27;77.97